createdAt,value
2022-10-26T00:00:06.668Z,11.43
2022-10-26T00:01:06.766Z,11.48
2022-10-26T00:02:06.821Z,11.45
2022-10-26T00:03:06.632Z,11.54
2022-10-26T00:04:06.620Z,11.49
2022-10-26T00:05:06.636Z,11.41
2022-10-26T00:06:06.601Z,11.41
2022-10-26T00:07:06.592Z,11.38
2022-10-26T00:08:06.609Z,11.41
2022-10-26T00:09:06.571Z,11.38
2022-10-26T00:10:06.556Z,11.37
2022-10-26T00:11:06.547Z,11.45
2022-10-26T00:12:06.546Z,11.37
2022-10-26T00:13:06.558Z,11.27
2022-10-26T00:14:06.520Z,11.25
2022-10-26T00:15:06.503Z,11.27
2022-10-26T00:16:06.500Z,11.33
2022-10-26T00:17:06.481Z,11.30
2022-10-26T00:18:06.508Z,11.33
2022-10-26T00:19:06.465Z,11.27
2022-10-26T00:20:06.456Z,11.25
2022-10-26T00:21:06.463Z,11.31
2022-10-26T00:22:06.430Z,11.28
2022-10-26T00:23:06.418Z,11.31
2022-10-26T00:24:06.464Z,11.25
2022-10-26T00:25:06.396Z,11.25
2022-10-26T00:26:06.408Z,11.25
2022-10-26T00:27:06.384Z,11.16
2022-10-26T00:28:06.365Z,11.22
2022-10-26T00:29:06.352Z,11.16
2022-10-26T00:30:06.352Z,11.15
2022-10-26T00:31:06.359Z,11.12
2022-10-26T00:32:06.323Z,11.18
2022-10-26T00:33:06.312Z,11.18
2022-10-26T00:34:06.320Z,11.16
2022-10-26T00:35:16.011Z,11.15
2022-10-26T00:36:07.305Z,11.15
2022-10-26T00:37:06.272Z,11.25
2022-10-26T00:38:06.252Z,11.12
2022-10-26T00:39:06.277Z,11.05
2022-10-26T00:40:06.235Z,11.12
2022-10-26T00:41:06.251Z,11.03
2022-10-26T00:42:06.213Z,11.15
2022-10-26T00:43:06.225Z,11.11
2022-10-26T00:44:06.189Z,11.11
2022-10-26T00:45:06.180Z,11.09
2022-10-26T00:46:06.168Z,11.09
2022-10-26T00:47:06.160Z,11.05
2022-10-26T00:48:06.177Z,10.97
2022-10-26T00:49:06.199Z,11.08
2022-10-26T00:50:06.149Z,10.98
2022-10-26T00:51:06.118Z,11.01
2022-10-26T00:52:06.109Z,10.97
2022-10-26T00:53:06.125Z,11.05
2022-10-26T00:54:06.082Z,11.01
2022-10-26T00:55:06.079Z,11.09
2022-10-26T00:56:06.064Z,11.04
2022-10-26T00:57:06.054Z,11.05
2022-10-26T00:58:06.045Z,11.05
2022-10-26T00:59:06.052Z,10.95
2022-10-26T01:00:06.022Z,11.00
2022-10-26T01:01:06.065Z,11.03
2022-10-26T01:02:06.007Z,10.95
2022-10-26T01:03:05.987Z,10.95
2022-10-26T01:04:06.089Z,10.91
2022-10-26T01:05:05.967Z,10.97
2022-10-26T01:06:05.984Z,10.95
2022-10-26T01:07:05.958Z,10.94
2022-10-26T01:08:05.934Z,10.83
2022-10-26T01:09:05.947Z,10.86
2022-10-26T01:10:05.919Z,10.94
2022-10-26T01:11:05.898Z,10.82
2022-10-26T01:12:05.890Z,10.85
2022-10-26T01:13:05.881Z,10.91
2022-10-26T01:14:05.890Z,10.85
2022-10-26T01:15:05.860Z,10.86
2022-10-26T01:16:05.844Z,10.86
2022-10-26T01:17:05.838Z,10.85
2022-10-26T01:18:05.826Z,10.82
2022-10-26T01:19:05.842Z,10.86
2022-10-26T01:20:05.799Z,10.82
2022-10-26T01:21:05.797Z,10.86
2022-10-26T01:22:05.814Z,10.76
2022-10-26T01:23:05.767Z,10.75
2022-10-26T01:24:05.781Z,10.85
2022-10-26T01:25:05.745Z,10.75
2022-10-26T01:26:05.757Z,10.70
2022-10-26T01:27:05.726Z,10.76
2022-10-26T01:28:05.713Z,10.72
2022-10-26T01:29:05.705Z,10.73
2022-10-26T01:30:05.716Z,10.72
2022-10-26T01:31:05.712Z,10.73
2022-10-26T01:32:05.682Z,10.72
2022-10-26T01:33:05.661Z,10.65
2022-10-26T01:34:05.648Z,10.67
2022-10-26T01:35:05.640Z,10.73
2022-10-26T01:36:05.660Z,10.62
2022-10-26T01:37:05.615Z,10.64
2022-10-26T01:38:05.628Z,10.67
2022-10-26T01:39:05.592Z,10.65
2022-10-26T01:40:05.608Z,10.62
2022-10-26T01:41:05.572Z,10.64
2022-10-26T01:42:05.590Z,10.60
2022-10-26T01:43:05.550Z,10.55
2022-10-26T01:44:05.539Z,10.64
2022-10-26T01:45:05.528Z,10.65
2022-10-26T01:46:05.564Z,10.49
2022-10-26T01:47:05.538Z,10.58
2022-10-26T01:48:05.504Z,10.49
2022-10-26T01:49:05.485Z,10.61
2022-10-26T01:50:05.474Z,10.46
2022-10-26T01:51:05.462Z,10.58
2022-10-26T01:52:05.475Z,10.45
2022-10-26T01:53:05.476Z,10.52
2022-10-26T01:54:05.447Z,10.55
2022-10-26T01:55:05.415Z,10.48
2022-10-26T01:56:05.407Z,10.49
2022-10-26T01:57:05.425Z,10.46
2022-10-26T01:58:05.527Z,10.46
2022-10-26T01:59:05.373Z,10.46
2022-10-26T02:00:05.386Z,10.41
2022-10-26T02:01:05.374Z,10.46
2022-10-26T02:02:05.342Z,10.42
2022-10-26T02:03:05.329Z,10.43
2022-10-26T02:04:05.389Z,10.41
2022-10-26T02:05:05.333Z,10.42
2022-10-26T02:06:05.298Z,10.43
2022-10-26T02:07:05.292Z,10.41
2022-10-26T02:08:05.273Z,10.41
2022-10-26T02:09:05.273Z,10.45
2022-10-26T02:10:05.304Z,10.38
2022-10-26T02:11:05.240Z,10.43
2022-10-26T02:12:05.258Z,10.45
2022-10-26T02:13:05.223Z,10.45
2022-10-26T02:14:05.276Z,10.26
2022-10-26T02:15:05.231Z,10.36
2022-10-26T02:16:05.188Z,10.27
2022-10-26T02:17:05.208Z,10.31
2022-10-26T02:18:05.172Z,10.36
2022-10-26T02:19:05.157Z,10.28
2022-10-26T02:20:05.141Z,10.31
2022-10-26T02:21:05.136Z,10.30
2022-10-26T02:22:05.146Z,10.31
2022-10-26T02:23:05.113Z,10.26
2022-10-26T02:24:05.237Z,10.26
2022-10-26T02:25:05.097Z,10.26
2022-10-26T02:26:05.103Z,10.27
2022-10-26T02:27:05.098Z,10.28
2022-10-26T02:28:05.055Z,10.26
2022-10-26T02:29:05.060Z,10.24
2022-10-26T02:30:05.036Z,10.27
2022-10-26T02:31:05.026Z,10.24
2022-10-26T02:32:05.037Z,10.27
2022-10-26T02:33:05.025Z,10.23
2022-10-26T02:34:05.004Z,10.21
2022-10-26T02:35:04.986Z,10.26
2022-10-26T02:36:04.968Z,10.31
2022-10-26T02:37:04.994Z,10.18
2022-10-26T02:38:04.949Z,10.23
2022-10-26T02:39:04.950Z,10.21
2022-10-26T02:40:04.926Z,10.12
2022-10-26T02:41:04.916Z,10.14
2022-10-26T02:42:04.944Z,10.17
2022-10-26T02:43:04.896Z,10.17
2022-10-26T02:44:04.911Z,10.16
2022-10-26T02:45:04.875Z,10.14
2022-10-26T02:46:04.858Z,10.16
2022-10-26T02:47:04.864Z,10.10
2022-10-26T02:48:04.835Z,10.10
2022-10-26T02:49:04.848Z,10.06
2022-10-26T02:50:04.816Z,10.09
2022-10-26T02:51:04.815Z,10.08
2022-10-26T02:52:04.801Z,10.03
2022-10-26T02:53:04.783Z,10.05
2022-10-26T02:54:04.799Z,10.09
2022-10-26T02:55:04.777Z,10.05
2022-10-26T02:56:04.753Z,10.12
2022-10-26T02:57:04.746Z,10.03
2022-10-26T02:58:04.764Z,10.01
2022-10-26T02:59:04.744Z,10.06
2022-10-26T03:00:04.777Z,10.02
2022-10-26T03:01:04.743Z,10.12
2022-10-26T03:02:04.686Z,10.06
2022-10-26T03:03:04.681Z,10.01
2022-10-26T03:04:04.860Z,10.05
2022-10-26T03:05:04.665Z,10.03
2022-10-26T03:06:04.650Z,10.01
2022-10-26T03:07:04.631Z,10.03
2022-10-26T03:08:04.623Z,10.03
2022-10-26T03:09:04.641Z,10.06
2022-10-26T03:10:04.599Z,10.03
2022-10-26T03:11:04.590Z,9.99
2022-10-26T03:12:04.582Z,10.03
2022-10-26T03:13:04.565Z,10.02
2022-10-26T03:14:04.588Z,9.98
2022-10-26T03:15:04.566Z,10.02
2022-10-26T03:16:04.562Z,9.98
2022-10-26T03:17:04.530Z,10.01
2022-10-26T03:18:04.505Z,9.94
2022-10-26T03:19:04.501Z,9.91
2022-10-26T03:20:04.491Z,9.91
2022-10-26T03:21:04.510Z,9.88
2022-10-26T03:22:04.474Z,9.87
2022-10-26T03:23:04.455Z,9.88
2022-10-26T03:24:04.447Z,9.96
2022-10-26T03:25:04.579Z,9.81
2022-10-26T03:26:04.448Z,9.85
2022-10-26T03:27:04.414Z,9.94
2022-10-26T03:28:04.401Z,9.83
2022-10-26T03:29:04.395Z,9.83
2022-10-26T03:30:04.398Z,9.90
2022-10-26T03:31:04.392Z,9.84
2022-10-26T03:32:04.369Z,9.80
2022-10-26T03:33:04.348Z,9.91
2022-10-26T03:34:04.346Z,9.80
2022-10-26T03:35:04.331Z,9.85
2022-10-26T03:36:04.349Z,9.83
2022-10-26T03:37:04.311Z,9.83
2022-10-26T03:38:04.304Z,9.84
2022-10-26T03:39:04.288Z,9.80
2022-10-26T03:40:04.276Z,9.75
2022-10-26T03:41:04.291Z,9.77
2022-10-26T03:42:04.468Z,9.83
2022-10-26T03:43:04.242Z,9.80
2022-10-26T03:44:04.237Z,9.77
2022-10-26T03:45:04.218Z,9.78
2022-10-26T03:46:04.248Z,9.77
2022-10-26T03:47:04.241Z,9.75
2022-10-26T03:48:04.186Z,9.69
2022-10-26T03:49:04.174Z,9.75
2022-10-26T03:50:06.862Z,9.70
2022-10-26T03:51:04.172Z,9.73
2022-10-26T03:52:04.166Z,9.73
2022-10-26T03:53:04.129Z,9.70
2022-10-26T03:54:04.122Z,9.67
2022-10-26T03:55:04.113Z,9.62
2022-10-26T03:56:04.128Z,9.69
2022-10-26T03:57:04.093Z,9.65
2022-10-26T03:58:04.076Z,9.55
2022-10-26T03:59:04.085Z,9.62
2022-10-26T04:00:04.055Z,9.57
2022-10-26T04:01:04.151Z,9.67
2022-10-26T04:02:04.048Z,9.60
2022-10-26T04:03:04.024Z,9.52
2022-10-26T04:04:04.091Z,9.57
2022-10-26T04:05:04.004Z,9.57
2022-10-26T04:06:04.016Z,9.63
2022-10-26T04:07:03.991Z,9.63
2022-10-26T04:08:03.966Z,9.57
2022-10-26T04:09:03.957Z,9.59
2022-10-26T04:10:03.951Z,9.59
2022-10-26T04:11:04.834Z,9.55
2022-10-26T04:12:03.929Z,9.52
2022-10-26T04:13:03.919Z,9.55
2022-10-26T04:14:03.902Z,9.54
2022-10-26T04:16:03.909Z,9.54
2022-10-26T04:17:03.872Z,9.55
2022-10-26T04:18:03.883Z,9.41
2022-10-26T04:19:04.021Z,9.44
2022-10-26T04:20:03.835Z,9.41
2022-10-26T04:21:03.855Z,9.44
2022-10-26T04:22:03.812Z,9.57
2022-10-26T04:23:03.808Z,9.50
2022-10-26T04:24:03.804Z,9.44
2022-10-26T04:25:03.785Z,9.51
2022-10-26T04:26:03.818Z,9.52
2022-10-26T04:27:03.766Z,9.50
2022-10-26T04:28:03.747Z,9.48
2022-10-26T04:29:03.741Z,9.44
2022-10-26T04:30:03.740Z,9.52
2022-10-26T04:31:03.721Z,9.44
2022-10-26T04:32:03.777Z,9.45
2022-10-26T04:33:03.696Z,9.51
2022-10-26T04:34:03.710Z,9.50
2022-10-26T04:35:03.682Z,9.42
2022-10-26T04:36:03.731Z,9.47
2022-10-26T04:37:03.689Z,9.40
2022-10-26T04:38:03.646Z,9.44
2022-10-26T04:39:03.635Z,9.41
2022-10-26T04:40:03.693Z,9.42
2022-10-26T04:41:03.626Z,9.41
2022-10-26T04:42:03.627Z,9.44
2022-10-26T04:43:03.588Z,9.41
2022-10-26T04:44:03.584Z,9.45
2022-10-26T04:45:03.578Z,9.37
2022-10-26T04:46:03.585Z,9.37
2022-10-26T04:47:03.573Z,9.37
2022-10-26T04:48:03.534Z,9.36
2022-10-26T04:49:03.528Z,9.30
2022-10-26T04:50:03.536Z,9.40
2022-10-26T04:51:03.540Z,9.40
2022-10-26T04:52:03.494Z,9.33
2022-10-26T04:53:03.499Z,9.32
2022-10-26T04:54:03.474Z,9.33
2022-10-26T04:55:03.464Z,9.34
2022-10-26T04:56:03.451Z,9.33
2022-10-26T04:57:03.481Z,9.29
2022-10-26T04:58:03.465Z,9.32
2022-10-26T04:59:03.415Z,9.33
2022-10-26T05:00:03.405Z,9.40
2022-10-26T05:01:03.644Z,9.36
2022-10-26T05:02:03.571Z,9.27
2022-10-26T05:03:03.397Z,9.29
2022-10-26T05:04:03.369Z,9.27
2022-10-26T05:06:03.363Z,9.36
2022-10-26T05:07:03.336Z,9.22
2022-10-26T05:08:03.350Z,9.30
2022-10-26T05:09:03.317Z,9.27
2022-10-26T05:10:03.326Z,9.40
2022-10-26T05:11:03.319Z,9.32
2022-10-26T05:12:03.279Z,9.32
2022-10-26T05:13:03.264Z,9.24
2022-10-26T05:14:03.280Z,9.16
2022-10-26T05:15:06.353Z,9.30
2022-10-26T05:16:04.268Z,9.29
2022-10-26T05:17:03.221Z,9.24
2022-10-26T05:18:03.214Z,9.27
2022-10-26T05:19:03.202Z,9.18
2022-10-26T05:20:03.220Z,9.19
2022-10-26T05:21:03.187Z,9.16
2022-10-26T05:22:03.228Z,9.18
2022-10-26T05:23:03.161Z,9.19
2022-10-26T05:24:03.151Z,9.18
2022-10-26T05:25:03.172Z,9.18
2022-10-26T05:26:03.127Z,9.14
2022-10-26T05:27:03.122Z,9.14
2022-10-26T05:28:03.126Z,9.14
2022-10-26T05:29:03.092Z,9.24
2022-10-26T05:30:03.153Z,9.22
2022-10-26T05:31:03.079Z,9.18
2022-10-26T05:32:03.066Z,9.14
2022-10-26T05:33:03.091Z,9.15
2022-10-26T05:34:03.047Z,9.09
2022-10-26T05:35:03.027Z,9.14
2022-10-26T05:36:03.024Z,9.12
2022-10-26T05:37:03.007Z,9.14
2022-10-26T05:38:03.103Z,9.15
2022-10-26T05:39:03.024Z,9.26
2022-10-26T05:40:02.978Z,9.06
2022-10-26T05:41:02.968Z,9.15
2022-10-26T05:42:02.954Z,9.09
2022-10-26T05:43:02.941Z,9.14
2022-10-26T05:44:02.962Z,9.08
2022-10-26T05:45:02.921Z,9.08
2022-10-26T05:46:02.913Z,9.12
2022-10-26T05:47:02.904Z,9.14
2022-10-26T05:48:03.398Z,9.12
2022-10-26T05:49:02.905Z,9.06
2022-10-26T05:50:02.872Z,9.08
2022-10-26T05:51:02.860Z,9.06
2022-10-26T05:52:02.844Z,9.03
2022-10-26T05:53:02.842Z,9.12
2022-10-26T05:54:02.872Z,9.08
2022-10-26T05:55:02.929Z,9.08
2022-10-26T05:56:04.995Z,9.06
2022-10-26T05:57:02.803Z,9.03
2022-10-26T05:58:02.785Z,9.06
2022-10-26T05:59:02.778Z,9.08
2022-10-26T06:00:02.766Z,8.99
2022-10-26T06:01:02.782Z,9.12
2022-10-26T06:02:02.881Z,8.99
2022-10-26T06:03:02.725Z,8.98
2022-10-26T06:04:02.723Z,9.01
2022-10-26T06:05:02.742Z,9.01
2022-10-26T06:06:05.218Z,8.99
2022-10-26T06:07:02.685Z,9.01
2022-10-26T06:08:02.675Z,9.03
2022-10-26T06:09:02.665Z,9.04
2022-10-26T06:10:02.672Z,9.01
2022-10-26T06:11:02.663Z,8.93
2022-10-26T06:12:02.640Z,8.96
2022-10-26T06:13:02.624Z,8.89
2022-10-26T06:14:02.612Z,8.92
2022-10-26T06:15:02.600Z,9.04
2022-10-26T06:16:02.618Z,8.86
2022-10-26T06:17:02.573Z,8.95
2022-10-26T06:18:02.564Z,8.93
2022-10-26T06:19:02.571Z,8.93
2022-10-26T06:20:02.642Z,8.88
2022-10-26T06:21:02.529Z,8.92
2022-10-26T06:22:02.556Z,8.88
2022-10-26T06:23:02.510Z,8.85
2022-10-26T06:24:02.505Z,8.89
2022-10-26T06:25:02.493Z,8.88
2022-10-26T06:26:02.500Z,8.90
2022-10-26T06:27:02.494Z,8.98
2022-10-26T06:28:02.459Z,8.89
2022-10-26T06:29:02.497Z,8.88
2022-10-26T06:30:02.461Z,8.88
2022-10-26T06:31:02.425Z,8.96
2022-10-26T06:32:02.457Z,8.90
2022-10-26T06:33:06.323Z,8.86
2022-10-26T06:34:03.396Z,8.85
2022-10-26T06:35:06.895Z,8.95
2022-10-26T06:36:02.399Z,8.92
2022-10-26T06:37:02.397Z,8.92
2022-10-26T06:38:02.352Z,8.92
2022-10-26T06:39:02.335Z,8.86
2022-10-26T06:40:02.330Z,8.90
2022-10-26T06:41:02.314Z,8.89
2022-10-26T06:42:02.365Z,8.93
2022-10-26T06:43:02.300Z,8.85
2022-10-26T06:44:02.285Z,8.88
2022-10-26T06:45:02.351Z,8.89
2022-10-26T06:46:02.272Z,8.89
2022-10-26T06:47:02.272Z,8.95
2022-10-26T06:48:02.244Z,8.93
2022-10-26T06:49:02.230Z,8.86
2022-10-26T06:50:02.221Z,8.92
2022-10-26T06:51:02.237Z,8.90
2022-10-26T06:52:02.255Z,8.92
2022-10-26T06:53:02.195Z,8.93
2022-10-26T06:54:02.189Z,8.88
2022-10-26T06:55:02.169Z,8.89
2022-10-26T06:56:02.179Z,8.89
2022-10-26T06:57:02.141Z,8.92
2022-10-26T06:58:02.158Z,8.88
2022-10-26T06:59:04.744Z,8.95
2022-10-26T07:00:02.156Z,8.96
2022-10-26T07:01:02.136Z,8.93
2022-10-26T07:02:05.618Z,8.88
2022-10-26T07:03:02.158Z,8.89
2022-10-26T07:04:02.099Z,9.01
2022-10-26T07:05:02.080Z,8.95
2022-10-26T07:06:02.060Z,9.01
2022-10-26T07:07:02.079Z,8.98
2022-10-26T07:08:02.021Z,8.98
2022-10-26T07:09:02.014Z,9.01
2022-10-26T07:10:02.004Z,9.09
2022-10-26T07:11:02.001Z,9.06
2022-10-26T07:12:01.979Z,9.06
2022-10-26T07:13:01.989Z,9.08
2022-10-26T07:14:01.976Z,9.09
2022-10-26T07:15:02.012Z,9.09
2022-10-26T07:16:01.942Z,9.08
2022-10-26T07:17:01.948Z,9.16
2022-10-26T07:18:01.940Z,9.11
2022-10-26T07:19:01.932Z,9.12
2022-10-26T07:20:01.897Z,9.09
2022-10-26T07:21:01.885Z,9.15
2022-10-26T07:22:01.881Z,9.09
2022-10-26T07:23:01.888Z,9.09
2022-10-26T07:24:01.850Z,9.18
2022-10-26T07:25:03.141Z,9.14
2022-10-26T07:26:01.851Z,9.16
2022-10-26T07:27:01.819Z,9.14
2022-10-26T07:28:01.847Z,9.22
2022-10-26T07:29:01.800Z,9.22
2022-10-26T07:30:01.811Z,9.29
2022-10-26T07:31:01.785Z,9.33
2022-10-26T07:32:01.762Z,9.32
2022-10-26T07:33:01.778Z,9.29
2022-10-26T07:34:01.750Z,9.32
2022-10-26T07:35:01.730Z,9.23
2022-10-26T07:36:01.777Z,9.30
2022-10-26T07:37:01.714Z,9.45
2022-10-26T07:38:01.699Z,9.32
2022-10-26T07:39:01.708Z,9.33
2022-10-26T07:40:05.676Z,9.32
2022-10-26T07:41:02.663Z,9.29
2022-10-26T07:42:01.668Z,9.37
2022-10-26T07:43:01.698Z,9.32
2022-10-26T07:44:01.640Z,9.44
2022-10-26T07:45:01.663Z,9.47
2022-10-26T07:46:01.670Z,9.42
2022-10-26T07:47:01.600Z,9.40
2022-10-26T07:48:01.603Z,9.42
2022-10-26T07:49:01.586Z,9.52
2022-10-26T07:50:01.571Z,9.52
2022-10-26T07:51:02.961Z,9.50
2022-10-26T07:52:01.583Z,9.45
2022-10-26T07:53:01.540Z,9.50
2022-10-26T07:54:01.540Z,9.54
2022-10-26T07:55:01.520Z,9.57
2022-10-26T07:56:01.508Z,9.59
2022-10-26T07:57:01.649Z,9.60
2022-10-26T07:58:01.968Z,9.57
2022-10-26T07:59:01.477Z,9.57
2022-10-26T08:00:01.470Z,9.55
2022-10-26T08:01:01.660Z,9.67
2022-10-26T08:02:01.595Z,9.59
2022-10-26T08:03:01.462Z,9.67
2022-10-26T08:04:01.417Z,9.66
2022-10-26T08:05:01.410Z,9.75
2022-10-26T08:06:01.397Z,9.77
2022-10-26T08:07:01.418Z,9.75
2022-10-26T08:08:01.391Z,9.72
2022-10-26T08:09:01.368Z,9.83
2022-10-26T08:10:01.358Z,9.78
2022-10-26T08:11:01.342Z,9.77
2022-10-26T08:12:01.356Z,9.80
2022-10-26T08:13:01.323Z,9.81
2022-10-26T08:14:01.328Z,9.85
2022-10-26T08:15:01.306Z,9.81
2022-10-26T08:16:01.299Z,9.85
2022-10-26T08:17:01.351Z,9.96
2022-10-26T08:18:01.291Z,9.91
2022-10-26T08:19:01.315Z,10.02
2022-10-26T08:20:01.253Z,10.01
2022-10-26T08:21:10.142Z,10.02
2022-10-26T08:22:02.320Z,9.99
2022-10-26T08:23:01.216Z,10.02
2022-10-26T08:24:01.221Z,10.05
2022-10-26T08:25:01.192Z,10.12
2022-10-26T08:26:01.177Z,10.08
2022-10-26T08:27:01.233Z,10.09
2022-10-26T08:28:01.189Z,10.03
2022-10-26T08:29:01.184Z,10.10
2022-10-26T08:30:01.139Z,10.09
2022-10-26T08:31:01.170Z,10.10
2022-10-26T08:32:01.121Z,10.12
2022-10-26T08:33:01.128Z,10.18
2022-10-26T08:34:01.148Z,10.12
2022-10-26T08:35:01.097Z,10.18
2022-10-26T08:36:01.072Z,10.16
2022-10-26T08:37:01.095Z,10.20
2022-10-26T08:38:01.048Z,10.16
2022-10-26T08:39:01.068Z,10.23
2022-10-26T08:40:03.095Z,10.27
2022-10-26T08:41:01.020Z,10.26
2022-10-26T08:42:01.051Z,10.31
2022-10-26T08:43:00.993Z,10.30
2022-10-26T08:44:00.985Z,10.28
2022-10-26T08:45:01.028Z,10.28
2022-10-26T08:46:00.960Z,10.30
2022-10-26T08:47:00.990Z,10.28
2022-10-26T08:48:00.971Z,10.39
2022-10-26T08:49:00.935Z,10.38
2022-10-26T08:50:00.948Z,10.46
2022-10-26T08:51:00.907Z,10.48
2022-10-26T08:52:00.923Z,10.48
2022-10-26T08:53:00.878Z,10.48
2022-10-26T08:54:00.907Z,10.41
2022-10-26T08:55:00.861Z,10.43
2022-10-26T08:56:01.025Z,10.43
2022-10-26T08:57:00.868Z,10.42
2022-10-26T08:58:00.835Z,10.55
2022-10-26T08:59:00.828Z,10.60
2022-10-26T09:00:00.850Z,10.55
2022-10-26T09:01:00.876Z,10.55
2022-10-26T09:02:00.837Z,10.55
2022-10-26T09:03:00.860Z,10.49
2022-10-26T09:05:00.796Z,10.65
2022-10-26T09:06:00.901Z,10.67
2022-10-26T09:07:00.733Z,10.67
2022-10-26T09:08:00.722Z,10.70
2022-10-26T09:09:00.745Z,10.65
2022-10-26T09:10:00.706Z,10.76
2022-10-26T09:11:00.720Z,10.75
2022-10-26T09:12:00.696Z,10.73
2022-10-26T09:13:00.689Z,10.72
2022-10-26T09:14:00.679Z,10.79
2022-10-26T09:15:00.684Z,10.72
2022-10-26T09:16:00.670Z,10.82
2022-10-26T09:17:00.625Z,10.79
2022-10-26T09:18:00.617Z,10.83
2022-10-26T09:19:02.685Z,10.91
2022-10-26T09:20:00.622Z,10.94
2022-10-26T09:21:00.621Z,10.86
2022-10-26T09:22:00.590Z,10.85
2022-10-26T09:23:00.569Z,10.87
2022-10-26T09:24:00.555Z,10.85
2022-10-26T09:25:04.058Z,10.93
2022-10-26T09:26:01.558Z,10.94
2022-10-26T09:27:00.571Z,11.01
2022-10-26T09:28:00.512Z,10.93
2022-10-26T09:29:00.495Z,11.09
2022-10-26T09:30:00.484Z,11.01
2022-10-26T09:31:00.500Z,11.00
2022-10-26T09:32:00.505Z,11.05
2022-10-26T09:33:00.460Z,10.94
2022-10-26T09:34:00.456Z,11.00
2022-10-26T09:35:00.447Z,11.03
2022-10-26T09:36:00.442Z,11.05
2022-10-26T09:37:00.459Z,11.04
2022-10-26T09:38:00.434Z,11.00
2022-10-26T09:39:00.391Z,11.04
2022-10-26T09:40:00.389Z,11.12
2022-10-26T09:41:00.400Z,11.08
2022-10-26T09:42:00.392Z,11.15
2022-10-26T09:43:00.351Z,11.18
2022-10-26T09:44:00.342Z,11.12
2022-10-26T09:45:00.545Z,11.11
2022-10-26T09:46:00.316Z,11.23
2022-10-26T09:47:00.325Z,11.25
2022-10-26T09:48:03.882Z,11.22
2022-10-26T09:50:00.312Z,11.27
2022-10-26T09:51:03.588Z,11.33
2022-10-26T09:52:00.331Z,11.30
2022-10-26T09:53:00.236Z,11.37
2022-10-26T09:54:00.252Z,11.30
2022-10-26T09:55:00.265Z,11.33
2022-10-26T09:56:00.202Z,11.41
2022-10-26T09:57:00.244Z,11.37
2022-10-26T09:58:00.186Z,11.45
2022-10-26T09:59:00.169Z,11.43
2022-10-26T10:00:00.164Z,11.49
2022-10-26T10:01:00.173Z,11.51
2022-10-26T10:02:00.287Z,11.51
2022-10-26T10:03:00.189Z,11.48
2022-10-26T10:04:00.119Z,11.52
2022-10-26T10:05:00.117Z,11.54
2022-10-26T10:06:00.124Z,11.52
2022-10-26T10:07:00.125Z,11.64
2022-10-26T10:08:00.083Z,11.70
2022-10-26T10:09:00.070Z,11.66
2022-10-26T10:10:00.087Z,11.61
2022-10-26T10:11:00.092Z,11.73
2022-10-26T10:12:00.051Z,11.71
2022-10-26T10:13:00.015Z,11.74
2022-10-26T10:14:00.018Z,11.73
2022-10-26T10:15:00.032Z,11.77
2022-10-26T10:16:00.019Z,11.80
2022-10-26T10:16:59.991Z,11.82
2022-10-26T10:18:00.227Z,11.80
2022-10-26T10:18:59.961Z,11.77
2022-10-26T10:19:59.948Z,11.91
2022-10-26T10:20:59.932Z,11.93
2022-10-26T10:21:59.944Z,11.95
2022-10-26T10:22:59.935Z,11.88
2022-10-26T10:23:59.903Z,11.88
2022-10-26T10:24:59.893Z,12.03
2022-10-26T10:25:59.895Z,12.07
2022-10-26T10:26:59.900Z,12.00
2022-10-26T10:27:59.849Z,12.13
2022-10-26T10:28:59.853Z,12.15
2022-10-26T10:30:03.251Z,12.15
2022-10-26T10:30:59.837Z,12.18
2022-10-26T10:31:59.841Z,12.23
2022-10-26T10:32:59.839Z,12.28
2022-10-26T10:33:59.793Z,12.28
2022-10-26T10:34:59.860Z,12.35
2022-10-26T10:35:59.773Z,12.36
2022-10-26T10:36:59.788Z,12.40
2022-10-26T10:37:59.747Z,12.51
2022-10-26T10:38:59.769Z,12.46
2022-10-26T10:39:59.730Z,12.46
2022-10-26T10:40:59.767Z,12.50
2022-10-26T10:41:59.738Z,12.55
2022-10-26T10:42:59.691Z,12.58
2022-10-26T10:43:59.685Z,12.63
2022-10-26T10:44:59.672Z,12.73
2022-10-26T10:45:59.813Z,12.76
2022-10-26T10:46:59.656Z,12.80
2022-10-26T10:47:59.663Z,12.73
2022-10-26T10:48:59.631Z,12.80
2022-10-26T10:49:59.633Z,12.79
2022-10-26T10:50:59.644Z,12.81
2022-10-26T10:51:59.591Z,12.98
2022-10-26T10:52:59.581Z,13.02
2022-10-26T10:53:59.582Z,13.02
2022-10-26T10:54:59.573Z,13.05
2022-10-26T10:55:59.701Z,13.09
2022-10-26T10:56:59.550Z,13.09
2022-10-26T10:57:59.560Z,13.24
2022-10-26T10:58:59.533Z,13.26
2022-10-26T10:59:59.505Z,13.29
2022-10-26T11:00:59.688Z,13.40
2022-10-26T11:01:59.774Z,13.32
2022-10-26T11:02:59.557Z,13.45
2022-10-26T11:03:59.478Z,13.49
2022-10-26T11:04:59.489Z,13.61
2022-10-26T11:05:59.456Z,13.65
2022-10-26T11:06:59.455Z,13.67
2022-10-26T11:07:59.417Z,13.71
2022-10-26T11:08:59.425Z,13.71
2022-10-26T11:09:59.395Z,13.68
2022-10-26T11:10:59.381Z,13.88
2022-10-26T11:11:59.402Z,13.85
2022-10-26T11:12:59.395Z,13.96
2022-10-26T11:13:59.376Z,13.86
2022-10-26T11:14:59.344Z,13.91
2022-10-26T11:15:59.331Z,13.93
2022-10-26T11:16:59.352Z,14.08
2022-10-26T11:17:59.342Z,14.05
2022-10-26T11:18:59.300Z,14.16
2022-10-26T11:19:59.292Z,14.23
2022-10-26T11:20:59.289Z,14.21
2022-10-26T11:21:59.265Z,14.26
2022-10-26T11:22:59.337Z,14.33
2022-10-26T11:23:59.248Z,14.33
2022-10-26T11:24:59.260Z,14.49
2022-10-26T11:25:59.223Z,14.48
2022-10-26T11:26:59.215Z,14.52
2022-10-26T11:27:59.206Z,14.58
2022-10-26T11:28:59.221Z,14.58
2022-10-26T11:29:59.214Z,14.61
2022-10-26T11:30:59.169Z,14.69
2022-10-26T11:31:59.158Z,14.73
2022-10-26T11:32:59.148Z,14.74
2022-10-26T11:33:59.176Z,14.93
2022-10-26T11:34:59.143Z,14.96
2022-10-26T11:35:59.126Z,14.96
2022-10-26T11:36:59.099Z,15.01
2022-10-26T11:37:59.091Z,15.04
2022-10-26T11:39:01.557Z,15.19
2022-10-26T11:39:59.075Z,15.22
2022-10-26T11:40:59.064Z,15.27
2022-10-26T11:41:59.043Z,15.26
2022-10-26T11:42:59.037Z,15.27
2022-10-26T11:43:59.051Z,15.35
2022-10-26T11:44:59.014Z,15.45
2022-10-26T11:46:58.995Z,15.45
2022-10-26T11:47:59.024Z,15.47
2022-10-26T11:48:58.975Z,15.52
2022-10-26T11:49:58.973Z,15.59
2022-10-26T11:50:58.952Z,15.69
2022-10-26T11:51:58.941Z,15.72
2022-10-26T11:52:58.964Z,15.73
2022-10-26T11:53:58.926Z,15.85
2022-10-26T11:54:58.910Z,15.85
2022-10-26T11:55:58.896Z,15.95
2022-10-26T11:56:58.898Z,15.98
2022-10-26T11:57:58.895Z,16.02
2022-10-26T11:58:58.925Z,16.03
2022-10-26T11:59:58.853Z,16.10
2022-10-26T12:00:58.859Z,16.10
2022-10-26T12:01:58.852Z,16.21
2022-10-26T12:02:58.835Z,16.26
2022-10-26T12:03:58.843Z,16.29
2022-10-26T12:04:58.812Z,16.29
2022-10-26T12:05:58.790Z,16.34
2022-10-26T12:06:58.825Z,16.40
2022-10-26T12:07:58.770Z,16.49
2022-10-26T12:08:58.784Z,16.54
2022-10-26T12:09:58.774Z,16.57
2022-10-26T12:10:58.805Z,16.49
2022-10-26T12:11:58.727Z,16.64
2022-10-26T12:12:58.718Z,16.64
2022-10-26T12:13:58.710Z,16.67
2022-10-26T12:14:58.719Z,16.76
2022-10-26T12:16:03.502Z,16.73
2022-10-26T12:16:59.670Z,16.69
2022-10-26T12:17:58.692Z,16.79
2022-10-26T12:18:58.662Z,16.76
2022-10-26T12:19:58.664Z,16.76
2022-10-26T12:20:58.633Z,16.83
2022-10-26T12:21:58.626Z,16.83
2022-10-26T12:22:58.604Z,16.87
2022-10-26T12:23:58.622Z,16.94
2022-10-26T12:24:58.615Z,16.95
2022-10-26T12:25:58.570Z,16.95
2022-10-26T12:26:58.559Z,16.92
2022-10-26T12:27:58.574Z,17.09
2022-10-26T12:28:58.566Z,17.07
2022-10-26T12:29:58.530Z,17.13
2022-10-26T12:30:58.521Z,17.07
2022-10-26T12:31:58.503Z,17.13
2022-10-26T12:33:03.481Z,17.10
2022-10-26T12:33:58.542Z,17.24
2022-10-26T12:34:58.504Z,17.22
2022-10-26T12:35:58.529Z,17.24
2022-10-26T12:36:58.450Z,17.24
2022-10-26T12:37:58.440Z,17.28
2022-10-26T12:38:58.433Z,17.32
2022-10-26T12:39:58.445Z,17.35
2022-10-26T12:40:58.421Z,17.39
2022-10-26T12:41:58.398Z,17.43
2022-10-26T12:42:58.385Z,17.41
2022-10-26T12:43:58.373Z,17.35
2022-10-26T12:44:58.406Z,17.47
2022-10-26T12:45:58.350Z,17.47
2022-10-26T12:46:58.337Z,17.46
2022-10-26T12:48:01.014Z,17.49
2022-10-26T12:48:59.341Z,17.46
2022-10-26T12:49:58.358Z,17.49
2022-10-26T12:50:58.336Z,17.53
2022-10-26T12:51:58.314Z,17.53
2022-10-26T12:52:58.275Z,17.56
2022-10-26T12:53:58.266Z,17.62
2022-10-26T12:54:58.256Z,17.62
2022-10-26T12:55:58.268Z,17.59
2022-10-26T12:56:58.238Z,17.65
2022-10-26T12:57:58.225Z,17.65
2022-10-26T12:59:01.091Z,17.59
2022-10-26T12:59:59.216Z,17.73
2022-10-26T13:00:58.216Z,17.76
2022-10-26T13:01:58.187Z,17.75
2022-10-26T13:02:58.171Z,17.76
2022-10-26T13:03:58.182Z,17.78
2022-10-26T13:04:58.189Z,17.75
2022-10-26T13:05:58.135Z,17.76
2022-10-26T13:06:58.124Z,17.75